createdAt,value
2023-05-06T00:00:05.597Z,4.97
2023-05-06T00:03:00.190Z,5.23
2023-05-06T00:05:49.664Z,5.33
2023-05-06T00:08:37.058Z,4.97
2023-05-06T00:11:24.318Z,5.57
2023-05-06T00:14:11.737Z,4.40
2023-05-06T00:16:59.190Z,5.70
2023-05-06T00:19:46.529Z,5.40
2023-05-06T00:22:35.596Z,5.07
2023-05-06T00:25:23.207Z,4.73
2023-05-06T00:28:10.949Z,4.40
2023-05-06T00:30:58.365Z,4.73
2023-05-06T00:33:45.638Z,5.20
2023-05-06T00:36:33.109Z,4.80
2023-05-06T00:39:22.334Z,5.30
2023-05-06T00:42:10.002Z,5.10
2023-05-06T00:44:57.472Z,4.90
2023-05-06T00:47:44.957Z,5.53
2023-05-06T00:50:33.216Z,5.00
2023-05-06T00:53:21.605Z,4.80
2023-05-06T00:56:10.548Z,5.77
2023-05-06T00:58:58.154Z,5.00
2023-05-06T01:01:45.715Z,4.27
2023-05-06T01:04:33.637Z,4.83
2023-05-06T01:07:25.591Z,4.57
2023-05-06T01:10:18.752Z,5.40
2023-05-06T01:13:09.330Z,5.53
2023-05-06T01:15:58.554Z,6.20
2023-05-06T01:18:46.515Z,5.60
2023-05-06T01:21:36.152Z,5.70
2023-05-06T01:24:35.886Z,5.97
2023-05-06T01:27:23.622Z,5.33
2023-05-06T01:30:11.462Z,6.30
2023-05-06T01:33:02.510Z,5.80
2023-05-06T01:35:52.730Z,6.23
2023-05-06T01:38:44.258Z,5.50
2023-05-06T01:41:35.227Z,6.23
2023-05-06T01:44:24.123Z,5.50
2023-05-06T01:47:12.015Z,5.57
2023-05-06T01:50:00.338Z,5.57
2023-05-06T01:52:57.357Z,6.30
2023-05-06T01:55:44.871Z,5.80
2023-05-06T01:58:33.703Z,6.00
2023-05-06T02:01:21.046Z,6.00
2023-05-06T02:04:08.332Z,5.63
2023-05-06T02:06:57.008Z,6.67
2023-05-06T02:09:44.618Z,6.00
2023-05-06T02:12:32.538Z,6.50
2023-05-06T02:15:21.707Z,6.20
2023-05-06T02:18:09.555Z,6.43
2023-05-06T02:20:57.077Z,5.60
2023-05-06T02:23:44.887Z,5.87
2023-05-06T02:26:32.153Z,6.37
2023-05-06T02:29:19.562Z,5.80
2023-05-06T02:32:08.353Z,5.73
2023-05-06T02:34:55.970Z,5.87
2023-05-06T02:37:43.100Z,5.67
2023-05-06T02:40:31.691Z,5.87
2023-05-06T02:43:19.389Z,5.40
2023-05-06T02:46:06.863Z,5.90
2023-05-06T02:48:55.704Z,6.00
2023-05-06T02:51:44.211Z,6.53
2023-05-06T02:54:31.912Z,6.47
2023-05-06T02:57:19.716Z,6.30
2023-05-06T03:00:07.758Z,6.37
2023-05-06T03:02:55.136Z,6.43
2023-05-06T03:05:43.793Z,6.27
2023-05-06T03:08:31.450Z,5.53
2023-05-06T03:11:19.225Z,5.67
2023-05-06T03:14:06.580Z,6.03
2023-05-06T03:16:54.035Z,6.13
2023-05-06T03:19:42.744Z,6.17
2023-05-06T03:22:33.999Z,5.93
2023-05-06T03:25:21.659Z,6.23
2023-05-06T03:28:09.547Z,6.30
2023-05-06T03:30:58.655Z,6.97
2023-05-06T03:33:46.408Z,6.77
2023-05-06T03:36:34.339Z,5.93
2023-05-06T03:39:23.701Z,6.43
2023-05-06T03:42:11.873Z,6.17
2023-05-06T03:44:59.799Z,7.00
2023-05-06T03:47:48.653Z,6.10
2023-05-06T03:50:37.508Z,6.33
2023-05-06T03:53:25.365Z,6.10
2023-05-06T03:56:14.629Z,5.80
2023-05-06T03:59:02.580Z,5.97
2023-05-06T04:01:50.293Z,5.40
2023-05-06T04:04:38.157Z,6.37
2023-05-06T04:07:25.633Z,5.90
2023-05-06T04:10:12.967Z,6.10
2023-05-06T04:13:04.453Z,6.00
2023-05-06T04:15:59.397Z,6.37
2023-05-06T04:18:53.622Z,6.10
2023-05-06T04:21:40.843Z,7.10
2023-05-06T04:24:32.156Z,5.80
2023-05-06T04:27:20.336Z,6.23
2023-05-06T04:30:10.573Z,6.20
2023-05-06T04:32:59.102Z,6.43
2023-05-06T04:35:54.122Z,5.97
2023-05-06T04:38:41.819Z,6.00
2023-05-06T04:41:31.072Z,5.97
2023-05-06T04:44:19.459Z,6.50
2023-05-06T04:47:09.711Z,6.33
2023-05-06T04:49:59.061Z,6.13
2023-05-06T04:52:47.651Z,6.33
2023-05-06T04:55:36.719Z,5.60
2023-05-06T04:58:24.086Z,6.50
2023-05-06T05:01:12.347Z,6.17
2023-05-06T05:04:01.257Z,6.17
2023-05-06T05:06:49.112Z,6.30
2023-05-06T05:09:37.613Z,6.67
2023-05-06T05:12:25.285Z,5.53
2023-05-06T05:15:13.996Z,5.80
2023-05-06T05:18:02.242Z,6.43
2023-05-06T05:20:51.626Z,6.03
2023-05-06T05:23:39.521Z,6.20
2023-05-06T05:26:26.905Z,5.97
2023-05-06T05:29:16.302Z,5.07
2023-05-06T05:32:05.071Z,6.57
2023-05-06T05:34:52.613Z,6.13
2023-05-06T05:37:41.985Z,5.93
2023-05-06T05:40:30.458Z,6.40
2023-05-06T05:43:17.914Z,6.20
2023-05-06T05:46:06.242Z,5.87
2023-05-06T05:48:54.398Z,6.00
2023-05-06T05:51:43.859Z,6.30
2023-05-06T05:54:35.353Z,5.53
2023-05-06T05:57:23.497Z,5.87
2023-05-06T06:00:13.834Z,6.07
2023-05-06T06:03:07.690Z,6.07
2023-05-06T06:05:56.353Z,5.90
2023-05-06T06:08:46.096Z,6.60
2023-05-06T06:11:36.354Z,6.53
2023-05-06T06:14:23.776Z,5.40
2023-05-06T06:17:11.620Z,6.27
2023-05-06T06:20:00.234Z,5.70
2023-05-06T06:22:47.874Z,6.00
2023-05-06T06:25:35.752Z,6.20
2023-05-06T06:28:24.533Z,6.67
2023-05-06T06:31:12.237Z,5.73
2023-05-06T06:33:59.599Z,6.17
2023-05-06T06:36:47.090Z,5.63
2023-05-06T06:39:34.564Z,6.27
2023-05-06T06:42:22.041Z,6.13
2023-05-06T06:45:22.225Z,6.10
2023-05-06T06:48:09.728Z,7.13
2023-05-06T06:50:57.628Z,5.80
2023-05-06T06:53:45.148Z,6.43
2023-05-06T06:56:32.853Z,6.20
2023-05-06T06:59:20.897Z,6.07
2023-05-06T07:02:10.081Z,6.63
2023-05-06T07:04:57.715Z,6.80
2023-05-06T07:07:45.128Z,6.03
2023-05-06T07:10:33.084Z,6.43
2023-05-06T07:13:23.297Z,6.90
2023-05-06T07:16:10.858Z,5.87
2023-05-06T07:19:00.058Z,6.57
2023-05-06T07:21:47.769Z,6.43
2023-05-06T07:24:35.161Z,6.57
2023-05-06T07:27:24.108Z,6.83
2023-05-06T07:30:12.049Z,6.73
2023-05-06T07:32:59.718Z,6.13
2023-05-06T07:35:48.552Z,6.67
2023-05-06T07:38:36.481Z,6.60
2023-05-06T07:41:24.166Z,6.43
2023-05-06T07:44:11.825Z,6.23
2023-05-06T07:46:59.577Z,6.43
2023-05-06T07:49:47.207Z,6.80
2023-05-06T07:52:36.103Z,7.03
2023-05-06T07:55:23.379Z,6.23
2023-05-06T07:58:11.368Z,6.87
2023-05-06T08:00:59.052Z,7.03
2023-05-06T08:03:46.425Z,6.90
2023-05-06T08:06:34.244Z,7.17
2023-05-06T08:09:23.347Z,7.50
2023-05-06T08:12:11.322Z,7.67
2023-05-06T08:14:58.931Z,7.57
2023-05-06T08:17:46.470Z,7.30
2023-05-06T08:20:34.506Z,7.93
2023-05-06T08:23:22.457Z,7.67
2023-05-06T08:26:11.275Z,8.47
2023-05-06T08:28:59.535Z,7.87
2023-05-06T08:31:46.933Z,8.03
2023-05-06T08:34:35.233Z,7.37
2023-05-06T08:37:22.624Z,8.27
2023-05-06T08:40:17.274Z,8.47
2023-05-06T08:43:06.901Z,8.90
2023-05-06T08:45:55.051Z,8.17
2023-05-06T08:48:42.806Z,8.20
2023-05-06T08:51:32.464Z,9.10
2023-05-06T08:54:20.354Z,8.47
2023-05-06T08:57:08.779Z,8.83
2023-05-06T08:59:58.579Z,8.30
2023-05-06T09:02:46.334Z,9.03
2023-05-06T09:05:34.301Z,8.20
2023-05-06T09:08:21.637Z,9.53
2023-05-06T09:11:21.175Z,9.37
2023-05-06T09:14:10.120Z,8.00
2023-05-06T09:16:58.846Z,8.93
2023-05-06T09:19:46.370Z,8.80
2023-05-06T09:22:34.289Z,8.20
2023-05-06T09:25:22.302Z,9.27
2023-05-06T09:28:10.910Z,8.50
2023-05-06T09:30:58.387Z,7.80
2023-05-06T09:33:47.107Z,7.23
2023-05-06T09:36:35.393Z,7.60
2023-05-06T09:39:26.908Z,6.87
2023-05-06T09:42:14.520Z,5.90
2023-05-06T09:45:02.726Z,6.47
2023-05-06T09:47:54.009Z,6.67
2023-05-06T09:50:44.468Z,8.63
2023-05-06T09:53:32.741Z,5.60
2023-05-06T09:56:21.338Z,8.80
2023-05-06T09:59:08.925Z,7.03
2023-05-06T10:01:57.032Z,6.43
2023-05-06T10:04:45.983Z,6.47
2023-05-06T10:07:36.025Z,5.73
2023-05-06T10:10:25.509Z,5.27
2023-05-06T10:13:14.021Z,5.93
2023-05-06T10:16:03.079Z,5.80
2023-05-06T10:18:52.138Z,5.63
2023-05-06T10:21:41.455Z,5.47
2023-05-06T10:24:34.457Z,5.23
2023-05-06T10:27:24.872Z,5.43
2023-05-06T10:30:13.281Z,5.07
2023-05-06T10:33:03.618Z,5.50
2023-05-06T10:35:54.832Z,6.80
2023-05-06T10:38:43.354Z,5.87
2023-05-06T10:41:33.270Z,5.43
2023-05-06T10:44:41.560Z,5.47
2023-05-06T10:47:29.355Z,5.80
2023-05-06T10:50:23.593Z,5.27
2023-05-06T10:53:10.979Z,5.33
2023-05-06T10:56:09.321Z,5.40
2023-05-06T10:58:59.280Z,5.20
2023-05-06T11:01:47.428Z,5.00
2023-05-06T11:04:35.226Z,5.03
2023-05-06T11:07:26.637Z,4.80
2023-05-06T11:10:14.001Z,4.97
2023-05-06T11:13:01.526Z,5.33
2023-05-06T11:15:52.108Z,4.67
2023-05-06T11:18:43.675Z,5.10
2023-05-06T11:21:40.886Z,5.00
2023-05-06T11:24:29.265Z,4.43
2023-05-06T11:27:19.576Z,3.97
2023-05-06T11:30:08.105Z,4.63
2023-05-06T11:32:57.544Z,4.17
2023-05-06T11:35:44.819Z,3.20
2023-05-06T11:38:42.280Z,3.20
2023-05-06T11:41:29.456Z,2.93
2023-05-06T11:44:26.894Z,3.10
2023-05-06T11:47:14.362Z,3.37
2023-05-06T11:50:07.541Z,3.67
2023-05-06T11:52:55.124Z,3.10
2023-05-06T11:55:42.577Z,3.50
2023-05-06T11:58:30.715Z,3.67
2023-05-06T12:01:18.327Z,3.63
2023-05-06T12:04:06.109Z,3.90
2023-05-06T12:06:55.683Z,3.63
2023-05-06T12:09:44.389Z,3.63
2023-05-06T12:12:33.363Z,3.80
2023-05-06T12:15:20.801Z,3.70
2023-05-06T12:18:08.732Z,3.73
2023-05-06T12:20:56.598Z,4.23
2023-05-06T12:23:53.656Z,3.73
2023-05-06T12:26:45.170Z,3.40
2023-05-06T12:29:32.754Z,4.23
2023-05-06T12:32:20.073Z,5.57
2023-05-06T12:35:09.501Z,7.93
2023-05-06T12:37:57.465Z,4.30
2023-05-06T12:40:54.074Z,5.37
2023-05-06T12:43:41.521Z,4.30
2023-05-06T12:46:29.002Z,4.20
2023-05-06T12:49:16.539Z,3.30
2023-05-06T12:52:07.741Z,4.70
2023-05-06T12:54:55.323Z,3.97
2023-05-06T12:57:44.070Z,4.07
2023-05-06T13:00:32.111Z,5.97
2023-05-06T13:03:20.097Z,4.17
2023-05-06T13:06:07.952Z,3.77
2023-05-06T13:08:55.601Z,5.50
2023-05-06T13:11:43.094Z,6.40
2023-05-06T13:14:32.301Z,4.00
2023-05-06T13:17:19.919Z,3.20
2023-05-06T13:20:08.417Z,3.40
2023-05-06T13:22:55.915Z,4.07
2023-05-06T13:26:00.306Z,3.13
2023-05-06T13:28:51.037Z,2.87
2023-05-06T13:31:40.223Z,2.97
2023-05-06T13:34:28.107Z,3.10
2023-05-06T13:37:15.733Z,3.40
2023-05-06T13:40:03.460Z,3.40
2023-05-06T13:42:50.929Z,3.87
2023-05-06T13:45:38.167Z,2.97
2023-05-06T13:48:27.210Z,3.10
2023-05-06T13:51:15.102Z,3.80
2023-05-06T13:54:02.410Z,3.20
2023-05-06T13:56:49.672Z,2.97
2023-05-06T13:59:37.182Z,2.83
2023-05-06T14:02:25.234Z,3.00
2023-05-06T14:05:15.576Z,3.73
2023-05-06T14:08:03.263Z,2.63
2023-05-06T14:10:50.731Z,3.60
2023-05-06T14:13:38.205Z,2.90
2023-05-06T14:16:25.513Z,3.30
2023-05-06T14:19:12.969Z,2.60
2023-05-06T14:22:01.848Z,2.97
2023-05-06T14:24:49.664Z,2.70
2023-05-06T14:27:37.037Z,2.37
2023-05-06T14:30:26.700Z,2.60
2023-05-06T14:33:14.227Z,2.50
2023-05-06T14:36:03.405Z,2.50
2023-05-06T14:38:52.327Z,2.87
2023-05-06T14:41:39.951Z,2.80
2023-05-06T14:44:27.270Z,2.70
2023-05-06T14:47:14.874Z,2.60
2023-05-06T14:50:02.365Z,2.50
2023-05-06T14:52:50.134Z,2.53
2023-05-06T14:55:40.727Z,2.40
2023-05-06T14:58:28.161Z,2.40
2023-05-06T15:01:15.604Z,2.50
2023-05-06T15:04:02.938Z,2.17
2023-05-06T15:06:50.463Z,2.20
2023-05-06T15:09:39.514Z,2.30
2023-05-06T15:12:28.252Z,2.20
2023-05-06T15:15:15.859Z,2.40
2023-05-06T15:18:03.318Z,2.33
2023-05-06T15:20:52.384Z,2.43
2023-05-06T15:23:39.836Z,2.30
2023-05-06T15:26:27.134Z,3.03
2023-05-06T15:29:15.892Z,2.90
2023-05-06T15:32:03.708Z,2.67
2023-05-06T15:34:51.655Z,2.50
2023-05-06T15:37:38.928Z,2.63
2023-05-06T15:40:26.537Z,2.47
2023-05-06T15:43:22.943Z,2.87
2023-05-06T15:46:12.269Z,2.40
2023-05-06T15:49:17.866Z,2.60
2023-05-06T15:52:07.553Z,2.90
2023-05-06T15:54:59.459Z,2.90
2023-05-06T15:57:47.671Z,2.67
2023-05-06T16:00:34.900Z,2.67
2023-05-06T16:03:23.763Z,2.70
2023-05-06T16:06:11.803Z,3.53
2023-05-06T16:09:00.883Z,3.17
2023-05-06T16:11:48.685Z,3.70
2023-05-06T16:14:36.074Z,3.40
2023-05-06T16:17:23.601Z,3.20
2023-05-06T16:20:13.287Z,5.67
2023-05-06T16:23:01.263Z,4.00
2023-05-06T16:25:48.709Z,3.70
2023-05-06T16:28:37.443Z,3.93
2023-05-06T16:31:26.892Z,4.60
2023-05-06T16:34:14.668Z,4.00
2023-05-06T16:37:03.672Z,3.80
2023-05-06T16:39:51.294Z,4.23
2023-05-06T16:42:38.795Z,3.90
2023-05-06T16:45:26.292Z,3.87
2023-05-06T16:48:14.117Z,3.80
2023-05-06T16:51:01.710Z,3.80
2023-05-06T16:53:50.904Z,3.30
2023-05-06T16:56:48.537Z,3.43
2023-05-06T16:59:39.135Z,3.53
2023-05-06T17:02:27.114Z,2.90
2023-05-06T17:05:14.810Z,3.13
2023-05-06T17:08:03.493Z,3.37
2023-05-06T17:10:52.554Z,3.03
2023-05-06T17:13:40.050Z,3.40
2023-05-06T17:16:27.387Z,3.30
2023-05-06T17:19:14.808Z,3.37
2023-05-06T17:22:02.283Z,3.93
2023-05-06T17:24:49.679Z,3.47
2023-05-06T17:27:38.590Z,3.40
2023-05-06T17:30:26.208Z,3.27
2023-05-06T17:33:13.943Z,3.50
2023-05-06T17:36:01.218Z,3.10
2023-05-06T17:38:48.812Z,3.20
2023-05-06T17:41:36.242Z,3.50
2023-05-06T17:44:24.909Z,3.87
2023-05-06T17:47:12.430Z,3.80
2023-05-06T17:50:00.616Z,4.10
2023-05-06T17:52:50.750Z,3.77
2023-05-06T17:55:38.292Z,4.10
2023-05-06T17:58:25.930Z,3.83
2023-05-06T18:01:15.066Z,4.10
2023-05-06T18:04:02.706Z,3.73
2023-05-06T18:06:49.958Z,3.70
2023-05-06T18:09:37.409Z,5.20
2023-05-06T18:12:25.084Z,4.33
2023-05-06T18:15:12.745Z,4.13
2023-05-06T18:18:01.618Z,4.50
2023-05-06T18:20:49.414Z,4.43
2023-05-06T18:23:36.793Z,4.33
2023-05-06T18:26:42.623Z,4.63
2023-05-06T18:29:33.118Z,4.47
2023-05-06T18:32:20.347Z,4.30
2023-05-06T18:35:10.830Z,4.40
2023-05-06T18:37:58.814Z,4.80
2023-05-06T18:40:47.160Z,4.60
2023-05-06T18:43:34.382Z,4.27
2023-05-06T18:46:21.798Z,4.67
2023-05-06T18:49:09.832Z,4.80
2023-05-06T18:51:58.613Z,4.70
2023-05-06T18:54:46.186Z,4.90
2023-05-06T18:57:33.786Z,5.33
2023-05-06T19:00:22.428Z,6.13
2023-05-06T19:03:09.863Z,5.70
2023-05-06T19:05:57.013Z,5.60
2023-05-06T19:08:45.800Z,6.10
2023-05-06T19:11:33.940Z,6.63
2023-05-06T19:14:22.922Z,7.13
2023-05-06T19:17:11.289Z,6.70
2023-05-06T19:19:58.998Z,7.50
2023-05-06T19:22:46.536Z,7.17
2023-05-06T19:25:36.865Z,6.80
2023-05-06T19:28:24.246Z,6.80
2023-05-06T19:31:12.258Z,7.80
2023-05-06T19:33:59.991Z,8.07
2023-05-06T19:36:47.352Z,7.73
2023-05-06T19:39:34.613Z,7.33
2023-05-06T19:42:23.223Z,7.97
2023-05-06T19:45:11.684Z,7.83
2023-05-06T19:47:59.551Z,7.53
2023-05-06T19:50:47.177Z,8.43
2023-05-06T19:53:34.754Z,8.60
2023-05-06T19:56:22.320Z,8.23
2023-05-06T19:59:11.169Z,8.47
2023-05-06T20:02:01.660Z,8.40
2023-05-06T20:04:49.102Z,8.70
2023-05-06T20:07:36.520Z,9.67
2023-05-06T20:10:24.219Z,9.77
2023-05-06T20:13:12.450Z,9.60
2023-05-06T20:16:01.927Z,9.40
2023-05-06T20:18:51.522Z,10.00
2023-05-06T20:21:40.151Z,11.20
2023-05-06T20:24:29.486Z,9.93
2023-05-06T20:27:16.778Z,10.67
2023-05-06T20:30:04.252Z,11.10
2023-05-06T20:32:53.742Z,10.40
2023-05-06T20:35:41.447Z,10.00
2023-05-06T20:38:30.756Z,10.40
2023-05-06T20:41:18.434Z,10.27
2023-05-06T20:44:06.362Z,11.70
2023-05-06T20:46:54.184Z,11.23
2023-05-06T20:49:43.174Z,11.20
2023-05-06T20:52:30.768Z,11.13
2023-05-06T20:55:20.474Z,9.90
2023-05-06T20:58:08.413Z,10.27
2023-05-06T21:00:57.212Z,10.93
2023-05-06T21:03:46.245Z,12.10
2023-05-06T21:06:35.056Z,11.97
2023-05-06T21:09:22.503Z,10.93
2023-05-06T21:12:10.276Z,11.80
2023-05-06T21:14:57.813Z,10.80
2023-05-06T21:17:45.554Z,11.80
2023-05-06T21:20:33.157Z,12.43
2023-05-06T21:23:22.269Z,11.53
2023-05-06T21:26:10.243Z,12.17
2023-05-06T21:28:57.821Z,12.13
2023-05-06T21:31:45.231Z,13.03
2023-05-06T21:34:32.720Z,11.80
2023-05-06T21:37:20.302Z,12.30
2023-05-06T21:40:09.731Z,13.07
2023-05-06T21:42:57.424Z,12.67
2023-05-06T21:45:45.152Z,12.43
2023-05-06T21:48:32.498Z,11.97
2023-05-06T21:51:19.846Z,12.50
2023-05-06T21:54:07.297Z,12.57
2023-05-06T21:56:56.428Z,12.87
2023-05-06T21:59:44.120Z,10.53
2023-05-06T22:02:31.602Z,11.80
2023-05-06T22:05:19.478Z,13.03
2023-05-06T22:08:07.045Z,12.07
2023-05-06T22:10:54.708Z,12.83
2023-05-06T22:13:43.449Z,11.53
2023-05-06T22:16:31.379Z,11.90
2023-05-06T22:19:20.362Z,12.23
2023-05-06T22:22:07.956Z,12.07
2023-05-06T22:24:55.298Z,12.30
2023-05-06T22:27:43.262Z,11.27
2023-05-06T22:30:32.442Z,10.67
2023-05-06T22:33:20.219Z,11.73
2023-05-06T22:36:07.619Z,12.70
2023-05-06T22:38:55.176Z,12.13
2023-05-06T22:41:42.744Z,11.90
2023-05-06T22:44:30.077Z,12.47
2023-05-06T22:47:19.795Z,11.70
2023-05-06T22:50:08.090Z,12.33
2023-05-06T22:52:55.792Z,11.27
2023-05-06T22:55:43.427Z,11.93
2023-05-06T22:58:31.475Z,11.87
2023-05-06T23:01:19.126Z,11.57
2023-05-06T23:04:08.325Z,11.57
2023-05-06T23:06:57.314Z,11.10
2023-05-06T23:09:44.612Z,11.43
2023-05-06T23:12:33.788Z,11.27
2023-05-06T23:15:21.657Z,11.23
2023-05-06T23:18:09.481Z,11.67
2023-05-06T23:20:58.088Z,10.90
2023-05-06T23:23:45.648Z,11.97
2023-05-06T23:26:33.067Z,10.07
2023-05-06T23:29:20.611Z,10.97
2023-05-06T23:32:08.177Z,11.13
2023-05-06T23:34:55.931Z,11.37
2023-05-06T23:37:44.927Z,9.93
2023-05-06T23:40:32.596Z,10.63
2023-05-06T23:43:19.903Z,10.87
2023-05-06T23:46:07.309Z,10.43
2023-05-06T23:48:54.786Z,10.97
2023-05-06T23:51:42.103Z,11.30
2023-05-06T23:54:30.811Z,11.57
2023-05-06T23:57:18.119Z,10.33
